sensor_id;sensor_type;location;lat;lon;timestamp;temperature;humidity
17066;DHT22;23120;52.336;21.182;2023-04-03T00:02:01;2.60;85.70
17066;DHT22;23120;52.336;21.182;2023-04-03T00:04:28;2.60;85.90
17066;DHT22;23120;52.336;21.182;2023-04-03T00:06:55;2.50;86.40
17066;DHT22;23120;52.336;21.182;2023-04-03T00:09:23;2.50;85.40
17066;DHT22;23120;52.336;21.182;2023-04-03T00:11:50;2.50;86.40
17066;DHT22;23120;52.336;21.182;2023-04-03T00:14:17;2.40;85.50
17066;DHT22;23120;52.336;21.182;2023-04-03T00:16:44;2.30;85.20
17066;DHT22;23120;52.336;21.182;2023-04-03T00:19:11;2.30;85.10
17066;DHT22;23120;52.336;21.182;2023-04-03T00:21:38;2.30;85.10
17066;DHT22;23120;52.336;21.182;2023-04-03T00:24:06;2.20;84.50
17066;DHT22;23120;52.336;21.182;2023-04-03T00:26:34;2.20;85.10
17066;DHT22;23120;52.336;21.182;2023-04-03T00:29:01;2.20;85.00
17066;DHT22;23120;52.336;21.182;2023-04-03T00:31:28;2.10;85.00
17066;DHT22;23120;52.336;21.182;2023-04-03T00:33:55;2.10;84.90
17066;DHT22;23120;52.336;21.182;2023-04-03T00:36:22;2.00;84.90
17066;DHT22;23120;52.336;21.182;2023-04-03T00:38:49;2.00;85.20
17066;DHT22;23120;52.336;21.182;2023-04-03T00:41:16;1.90;85.30
17066;DHT22;23120;52.336;21.182;2023-04-03T00:43:44;1.90;85.10
17066;DHT22;23120;52.336;21.182;2023-04-03T00:46:11;1.90;85.00
17066;DHT22;23120;52.336;21.182;2023-04-03T00:48:41;1.80;85.00
17066;DHT22;23120;52.336;21.182;2023-04-03T00:51:11;1.80;84.80
17066;DHT22;23120;52.336;21.182;2023-04-03T00:53:41;1.80;84.90
17066;DHT22;23120;52.336;21.182;2023-04-03T00:56:12;1.70;84.80
17066;DHT22;23120;52.336;21.182;2023-04-03T00:58:42;1.70;85.00
17066;DHT22;23120;52.336;21.182;2023-04-03T01:01:15;1.60;84.60
17066;DHT22;23120;52.336;21.182;2023-04-03T01:03:42;1.60;84.50
17066;DHT22;23120;52.336;21.182;2023-04-03T01:06:18;1.60;84.50
17066;DHT22;23120;52.336;21.182;2023-04-03T01:08:48;1.50;84.40
17066;DHT22;23120;52.336;21.182;2023-04-03T01:11:18;1.50;84.80
17066;DHT22;23120;52.336;21.182;2023-04-03T01:13:46;1.40;84.90
17066;DHT22;23120;52.336;21.182;2023-04-03T01:16:16;1.40;84.40
17066;DHT22;23120;52.336;21.182;2023-04-03T01:18:43;1.40;84.70
17066;DHT22;23120;52.336;21.182;2023-04-03T01:21:42;1.40;84.50
17066;DHT22;23120;52.336;21.182;2023-04-03T01:24:34;1.40;84.30
17066;DHT22;23120;52.336;21.182;2023-04-03T01:27:05;1.30;84.60
17066;DHT22;23120;52.336;21.182;2023-04-03T01:29:45;1.30;84.70
17066;DHT22;23120;52.336;21.182;2023-04-03T01:32:13;1.20;84.70
17066;DHT22;23120;52.336;21.182;2023-04-03T01:34:41;1.20;84.70
17066;DHT22;23120;52.336;21.182;2023-04-03T01:37:08;1.10;84.60
17066;DHT22;23120;52.336;21.182;2023-04-03T01:39:35;1.10;84.90
17066;DHT22;23120;52.336;21.182;2023-04-03T01:42:01;1.10;84.90
17066;DHT22;23120;52.336;21.182;2023-04-03T01:44:33;1.00;84.70
17066;DHT22;23120;52.336;21.182;2023-04-03T01:47:00;1.00;84.90
17066;DHT22;23120;52.336;21.182;2023-04-03T01:49:29;0.90;85.00
17066;DHT22;23120;52.336;21.182;2023-04-03T01:51:56;0.90;85.10
17066;DHT22;23120;52.336;21.182;2023-04-03T01:54:23;0.90;84.90
17066;DHT22;23120;52.336;21.182;2023-04-03T01:56:50;0.80;84.60
17066;DHT22;23120;52.336;21.182;2023-04-03T01:59:18;0.80;85.00
17066;DHT22;23120;52.336;21.182;2023-04-03T02:01:45;0.80;85.10
17066;DHT22;23120;52.336;21.182;2023-04-03T02:04:41;0.70;85.10
17066;DHT22;23120;52.336;21.182;2023-04-03T02:07:08;0.70;85.30
17066;DHT22;23120;52.336;21.182;2023-04-03T02:09:35;0.70;85.20
17066;DHT22;23120;52.336;21.182;2023-04-03T02:12:02;0.70;85.20
17066;DHT22;23120;52.336;21.182;2023-04-03T02:14:30;0.60;85.10
17066;DHT22;23120;52.336;21.182;2023-04-03T02:16:56;0.60;85.20
17066;DHT22;23120;52.336;21.182;2023-04-03T02:19:24;0.60;85.00
17066;DHT22;23120;52.336;21.182;2023-04-03T02:21:52;0.60;85.40
17066;DHT22;23120;52.336;21.182;2023-04-03T02:24:19;0.60;85.60
17066;DHT22;23120;52.336;21.182;2023-04-03T02:26:45;0.50;85.50
17066;DHT22;23120;52.336;21.182;2023-04-03T02:29:12;0.50;85.30
17066;DHT22;23120;52.336;21.182;2023-04-03T02:31:39;0.50;85.60
17066;DHT22;23120;52.336;21.182;2023-04-03T02:34:06;0.50;85.60
17066;DHT22;23120;52.336;21.182;2023-04-03T02:36:34;0.50;85.40
17066;DHT22;23120;52.336;21.182;2023-04-03T02:39:06;0.40;85.50
17066;DHT22;23120;52.336;21.182;2023-04-03T02:41:34;0.40;85.50
17066;DHT22;23120;52.336;21.182;2023-04-03T02:44:06;0.40;85.60
17066;DHT22;23120;52.336;21.182;2023-04-03T02:46:33;0.40;85.70
17066;DHT22;23120;52.336;21.182;2023-04-03T02:49:02;0.30;85.60
17066;DHT22;23120;52.336;21.182;2023-04-03T02:51:30;0.30;85.60
17066;DHT22;23120;52.336;21.182;2023-04-03T02:53:57;0.30;85.80
17066;DHT22;23120;52.336;21.182;2023-04-03T02:56:29;0.30;86.00
17066;DHT22;23120;52.336;21.182;2023-04-03T02:58:56;0.30;85.90
17066;DHT22;23120;52.336;21.182;2023-04-03T03:01:49;0.20;85.90
17066;DHT22;23120;52.336;21.182;2023-04-03T03:04:16;0.20;85.80
17066;DHT22;23120;52.336;21.182;2023-04-03T03:06:43;0.20;86.00
17066;DHT22;23120;52.336;21.182;2023-04-03T03:09:09;0.20;86.20
17066;DHT22;23120;52.336;21.182;2023-04-03T03:11:38;0.10;86.20
17066;DHT22;23120;52.336;21.182;2023-04-03T03:14:05;0.20;86.30
17066;DHT22;23120;52.336;21.182;2023-04-03T03:16:32;0.10;86.10
17066;DHT22;23120;52.336;21.182;2023-04-03T03:18:59;0.10;86.20
17066;DHT22;23120;52.336;21.182;2023-04-03T03:21:26;0.10;86.20
17066;DHT22;23120;52.336;21.182;2023-04-03T03:23:53;0.00;86.10
17066;DHT22;23120;52.336;21.182;2023-04-03T03:26:20;0.00;86.10
17066;DHT22;23120;52.336;21.182;2023-04-03T03:28:48;0.00;86.10
17066;DHT22;23120;52.336;21.182;2023-04-03T03:31:15;-0.10;86.10
17066;DHT22;23120;52.336;21.182;2023-04-03T03:33:42;-0.10;86.00
17066;DHT22;23120;52.336;21.182;2023-04-03T03:36:09;-0.10;86.10
17066;DHT22;23120;52.336;21.182;2023-04-03T03:38:37;-0.10;86.10
17066;DHT22;23120;52.336;21.182;2023-04-03T03:41:04;-0.10;86.00
17066;DHT22;23120;52.336;21.182;2023-04-03T03:43:33;-0.20;86.00
17066;DHT22;23120;52.336;21.182;2023-04-03T03:46:01;-0.20;86.00
17066;DHT22;23120;52.336;21.182;2023-04-03T03:48:28;-0.20;86.00
17066;DHT22;23120;52.336;21.182;2023-04-03T03:50:55;-0.30;85.90
17066;DHT22;23120;52.336;21.182;2023-04-03T03:53:51;-0.30;86.00
17066;DHT22;23120;52.336;21.182;2023-04-03T03:56:19;-0.30;85.80
17066;DHT22;23120;52.336;21.182;2023-04-03T03:58:47;-0.30;85.90
17066;DHT22;23120;52.336;21.182;2023-04-03T04:01:16;-0.40;86.30
17066;DHT22;23120;52.336;21.182;2023-04-03T04:03:46;-0.40;86.30
17066;DHT22;23120;52.336;21.182;2023-04-03T04:06:18;-0.40;86.40
17066;DHT22;23120;52.336;21.182;2023-04-03T04:08:45;-0.50;86.50
17066;DHT22;23120;52.336;21.182;2023-04-03T04:11:14;-0.50;86.70
17066;DHT22;23120;52.336;21.182;2023-04-03T04:13:42;-0.50;87.00
17066;DHT22;23120;52.336;21.182;2023-04-03T04:16:11;-0.50;86.90
17066;DHT22;23120;52.336;21.182;2023-04-03T04:18:39;-0.60;86.90
17066;DHT22;23120;52.336;21.182;2023-04-03T04:21:06;-0.50;86.90
17066;DHT22;23120;52.336;21.182;2023-04-03T04:23:33;-0.60;87.20
17066;DHT22;23120;52.336;21.182;2023-04-03T04:26:00;-0.60;87.30
17066;DHT22;23120;52.336;21.182;2023-04-03T04:28:31;-0.60;87.10
17066;DHT22;23120;52.336;21.182;2023-04-03T04:30:59;-0.60;87.30
17066;DHT22;23120;52.336;21.182;2023-04-03T04:33:27;-0.60;87.40
17066;DHT22;23120;52.336;21.182;2023-04-03T04:35:57;-0.60;87.50
17066;DHT22;23120;52.336;21.182;2023-04-03T04:38:24;-0.70;87.80
17066;DHT22;23120;52.336;21.182;2023-04-03T04:40:52;-0.60;88.10
17066;DHT22;23120;52.336;21.182;2023-04-03T04:43:20;-0.70;87.90
17066;DHT22;23120;52.336;21.182;2023-04-03T04:46:00;-0.70;87.90
17066;DHT22;23120;52.336;21.182;2023-04-03T04:48:27;-0.70;87.80
17066;DHT22;23120;52.336;21.182;2023-04-03T04:50:54;-0.70;87.90
17066;DHT22;23120;52.336;21.182;2023-04-03T04:53:22;-0.70;87.70
17066;DHT22;23120;52.336;21.182;2023-04-03T04:55:49;-0.70;87.80
17066;DHT22;23120;52.336;21.182;2023-04-03T04:58:16;-0.70;88.00
17066;DHT22;23120;52.336;21.182;2023-04-03T05:00:43;-0.70;88.00
17066;DHT22;23120;52.336;21.182;2023-04-03T05:03:10;-0.70;88.00
17066;DHT22;23120;52.336;21.182;2023-04-03T05:05:37;-0.70;88.10
17066;DHT22;23120;52.336;21.182;2023-04-03T05:08:06;-0.70;88.30
17066;DHT22;23120;52.336;21.182;2023-04-03T05:10:35;-0.60;88.30
17066;DHT22;23120;52.336;21.182;2023-04-03T05:13:02;-0.70;88.30
17066;DHT22;23120;52.336;21.182;2023-04-03T05:15:29;-0.60;88.30
17066;DHT22;23120;52.336;21.182;2023-04-03T05:17:56;-0.60;88.50
17066;DHT22;23120;52.336;21.182;2023-04-03T05:20:23;-0.60;88.40
17066;DHT22;23120;52.336;21.182;2023-04-03T05:22:51;-0.60;88.40
17066;DHT22;23120;52.336;21.182;2023-04-03T05:25:18;-0.60;88.30
17066;DHT22;23120;52.336;21.182;2023-04-03T05:27:46;-0.40;88.50
17066;DHT22;23120;52.336;21.182;2023-04-03T05:30:13;-0.50;88.50
17066;DHT22;23120;52.336;21.182;2023-04-03T05:32:41;-0.50;88.20
17066;DHT22;23120;52.336;21.182;2023-04-03T05:35:14;-0.40;88.50
17066;DHT22;23120;52.336;21.182;2023-04-03T05:37:42;-0.40;88.50
17066;DHT22;23120;52.336;21.182;2023-04-03T05:40:10;-0.40;88.20
17066;DHT22;23120;52.336;21.182;2023-04-03T05:42:41;-0.30;88.20
17066;DHT22;23120;52.336;21.182;2023-04-03T05:45:10;-0.30;88.20
17066;DHT22;23120;52.336;21.182;2023-04-03T05:47:37;-0.20;88.10
17066;DHT22;23120;52.336;21.182;2023-04-03T05:50:06;-0.20;88.00
17066;DHT22;23120;52.336;21.182;2023-04-03T05:52:35;-0.10;88.20
17066;DHT22;23120;52.336;21.182;2023-04-03T05:55:03;-0.10;88.00
17066;DHT22;23120;52.336;21.182;2023-04-03T05:57:33;-0.10;87.70
17066;DHT22;23120;52.336;21.182;2023-04-03T06:00:00;0.00;87.00
17066;DHT22;23120;52.336;21.182;2023-04-03T06:02:29;0.00;86.80
17066;DHT22;23120;52.336;21.182;2023-04-03T06:04:57;0.10;86.80
17066;DHT22;23120;52.336;21.182;2023-04-03T06:07:24;0.10;86.80
17066;DHT22;23120;52.336;21.182;2023-04-03T06:09:55;0.10;86.40
17066;DHT22;23120;52.336;21.182;2023-04-03T06:12:22;0.20;86.90
17066;DHT22;23120;52.336;21.182;2023-04-03T06:14:49;0.20;86.80
17066;DHT22;23120;52.336;21.182;2023-04-03T06:17:17;0.20;86.40
17066;DHT22;23120;52.336;21.182;2023-04-03T06:19:45;0.20;86.30
17066;DHT22;23120;52.336;21.182;2023-04-03T06:22:13;0.30;86.40
17066;DHT22;23120;52.336;21.182;2023-04-03T06:24:40;0.30;86.40
17066;DHT22;23120;52.336;21.182;2023-04-03T06:27:25;0.30;86.40
17066;DHT22;23120;52.336;21.182;2023-04-03T06:29:52;0.30;86.10
17066;DHT22;23120;52.336;21.182;2023-04-03T06:32:20;0.40;86.50
17066;DHT22;23120;52.336;21.182;2023-04-03T06:34:48;0.40;86.30
17066;DHT22;23120;52.336;21.182;2023-04-03T06:37:17;0.50;86.60
17066;DHT22;23120;52.336;21.182;2023-04-03T06:39:44;0.50;86.60
17066;DHT22;23120;52.336;21.182;2023-04-03T06:42:11;0.60;86.50
17066;DHT22;23120;52.336;21.182;2023-04-03T06:44:49;0.60;85.70
17066;DHT22;23120;52.336;21.182;2023-04-03T06:47:17;0.70;85.70
17066;DHT22;23120;52.336;21.182;2023-04-03T06:49:44;0.70;85.40
17066;DHT22;23120;52.336;21.182;2023-04-03T06:52:12;0.80;85.40
17066;DHT22;23120;52.336;21.182;2023-04-03T06:54:40;0.80;85.30
17066;DHT22;23120;52.336;21.182;2023-04-03T06:57:07;0.80;85.30
17066;DHT22;23120;52.336;21.182;2023-04-03T06:59:34;0.90;85.30
17066;DHT22;23120;52.336;21.182;2023-04-03T07:02:02;0.90;85.10
17066;DHT22;23120;52.336;21.182;2023-04-03T07:04:29;1.00;85.00
17066;DHT22;23120;52.336;21.182;2023-04-03T07:06:56;1.10;84.90
17066;DHT22;23120;52.336;21.182;2023-04-03T07:09:24;1.20;85.70
17066;DHT22;23120;52.336;21.182;2023-04-03T07:11:51;1.30;87.00
17066;DHT22;23120;52.336;21.182;2023-04-03T07:14:18;1.40;85.80
17066;DHT22;23120;52.336;21.182;2023-04-03T07:16:46;1.50;85.40
17066;DHT22;23120;52.336;21.182;2023-04-03T07:19:13;1.70;84.80
17066;DHT22;23120;52.336;21.182;2023-04-03T07:21:40;1.80;84.80
17066;DHT22;23120;52.336;21.182;2023-04-03T07:24:07;1.90;85.40
17066;DHT22;23120;52.336;21.182;2023-04-03T07:26:35;2.00;83.90
17066;DHT22;23120;52.336;21.182;2023-04-03T07:29:02;2.20;85.00
17066;DHT22;23120;52.336;21.182;2023-04-03T07:31:29;2.40;85.10
17066;DHT22;23120;52.336;21.182;2023-04-03T07:33:56;2.40;84.80
17066;DHT22;23120;52.336;21.182;2023-04-03T07:36:23;2.50;85.20
17066;DHT22;23120;52.336;21.182;2023-04-03T07:38:50;2.60;85.60
17066;DHT22;23120;52.336;21.182;2023-04-03T07:41:19;2.50;85.90
17066;DHT22;23120;52.336;21.182;2023-04-03T07:43:49;2.60;84.50
17066;DHT22;23120;52.336;21.182;2023-04-03T07:46:17;2.60;84.60
17066;DHT22;23120;52.336;21.182;2023-04-03T07:48:44;2.70;84.10
17066;DHT22;23120;52.336;21.182;2023-04-03T07:51:11;2.70;84.80
17066;DHT22;23120;52.336;21.182;2023-04-03T07:53:38;2.80;85.40
17066;DHT22;23120;52.336;21.182;2023-04-03T07:56:07;2.80;85.70
17066;DHT22;23120;52.336;21.182;2023-04-03T07:58:35;2.90;86.00
17066;DHT22;23120;52.336;21.182;2023-04-03T08:01:05;2.90;87.40
17066;DHT22;23120;52.336;21.182;2023-04-03T08:03:38;3.00;87.60
17066;DHT22;23120;52.336;21.182;2023-04-03T08:06:07;3.00;82.00
17066;DHT22;23120;52.336;21.182;2023-04-03T08:08:35;3.10;83.70
17066;DHT22;23120;52.336;21.182;2023-04-03T08:11:02;3.20;84.60
17066;DHT22;23120;52.336;21.182;2023-04-03T08:13:32;3.30;84.70
17066;DHT22;23120;52.336;21.182;2023-04-03T08:16:09;3.30;84.10
17066;DHT22;23120;52.336;21.182;2023-04-03T08:18:36;3.40;82.90
17066;DHT22;23120;52.336;21.182;2023-04-03T08:21:06;3.50;82.70
17066;DHT22;23120;52.336;21.182;2023-04-03T08:23:32;3.60;84.70
17066;DHT22;23120;52.336;21.182;2023-04-03T08:26:05;3.60;83.60
17066;DHT22;23120;52.336;21.182;2023-04-03T08:28:33;3.70;78.10
17066;DHT22;23120;52.336;21.182;2023-04-03T08:31:03;3.80;76.70
17066;DHT22;23120;52.336;21.182;2023-04-03T08:33:33;3.80;76.40
17066;DHT22;23120;52.336;21.182;2023-04-03T08:36:02;4.10;78.90
17066;DHT22;23120;52.336;21.182;2023-04-03T08:38:29;4.10;77.70
17066;DHT22;23120;52.336;21.182;2023-04-03T08:41:02;4.20;77.90
17066;DHT22;23120;52.336;21.182;2023-04-03T08:43:40;4.30;77.90
17066;DHT22;23120;52.336;21.182;2023-04-03T08:46:11;4.40;77.30
17066;DHT22;23120;52.336;21.182;2023-04-03T08:48:43;4.50;78.00
17066;DHT22;23120;52.336;21.182;2023-04-03T08:51:13;4.60;73.80
17066;DHT22;23120;52.336;21.182;2023-04-03T08:53:45;4.60;76.00
17066;DHT22;23120;52.336;21.182;2023-04-03T08:56:14;4.80;76.60
17066;DHT22;23120;52.336;21.182;2023-04-03T08:58:50;4.80;76.50
17066;DHT22;23120;52.336;21.182;2023-04-03T09:01:23;4.90;73.00
17066;DHT22;23120;52.336;21.182;2023-04-03T09:03:53;5.00;74.00
17066;DHT22;23120;52.336;21.182;2023-04-03T09:06:22;5.10;72.70
17066;DHT22;23120;52.336;21.182;2023-04-03T09:09:06;5.20;72.70
17066;DHT22;23120;52.336;21.182;2023-04-03T09:11:43;5.30;75.50
17066;DHT22;23120;52.336;21.182;2023-04-03T09:14:19;5.40;76.40
17066;DHT22;23120;52.336;21.182;2023-04-03T09:16:54;5.50;77.10
17066;DHT22;23120;52.336;21.182;2023-04-03T09:19:32;5.50;77.50
17066;DHT22;23120;52.336;21.182;2023-04-03T09:22:13;5.60;74.70
17066;DHT22;23120;52.336;21.182;2023-04-03T09:24:44;5.70;75.90
17066;DHT22;23120;52.336;21.182;2023-04-03T09:27:12;5.80;77.30
17066;DHT22;23120;52.336;21.182;2023-04-03T09:29:41;5.90;77.90
17066;DHT22;23120;52.336;21.182;2023-04-03T09:32:22;6.00;73.20
17066;DHT22;23120;52.336;21.182;2023-04-03T09:34:54;6.10;75.20
17066;DHT22;23120;52.336;21.182;2023-04-03T09:37:38;6.30;75.40
17066;DHT22;23120;52.336;21.182;2023-04-03T09:40:27;6.30;74.60
17066;DHT22;23120;52.336;21.182;2023-04-03T09:42:56;6.30;74.80
17066;DHT22;23120;52.336;21.182;2023-04-03T09:45:25;6.40;76.10
17066;DHT22;23120;52.336;21.182;2023-04-03T09:48:06;6.50;75.20
17066;DHT22;23120;52.336;21.182;2023-04-03T09:50:36;6.50;76.70
17066;DHT22;23120;52.336;21.182;2023-04-03T09:53:29;6.60;74.40
17066;DHT22;23120;52.336;21.182;2023-04-03T09:55:55;6.70;75.10
17066;DHT22;23120;52.336;21.182;2023-04-03T09:58:27;6.70;72.80
17066;DHT22;23120;52.336;21.182;2023-04-03T10:00:56;6.80;70.80
17066;DHT22;23120;52.336;21.182;2023-04-03T10:03:27;6.90;71.30
17066;DHT22;23120;52.336;21.182;2023-04-03T10:05:56;6.90;69.40
17066;DHT22;23120;52.336;21.182;2023-04-03T10:08:27;7.00;69.20
17066;DHT22;23120;52.336;21.182;2023-04-03T10:11:15;7.00;68.20
17066;DHT22;23120;52.336;21.182;2023-04-03T10:13:54;7.10;68.80
17066;DHT22;23120;52.336;21.182;2023-04-03T10:16:26;7.20;65.90
17066;DHT22;23120;52.336;21.182;2023-04-03T10:19:03;7.20;66.20
17066;DHT22;23120;52.336;21.182;2023-04-03T10:21:40;7.30;68.50
17066;DHT22;23120;52.336;21.182;2023-04-03T10:24:15;7.30;67.70
17066;DHT22;23120;52.336;21.182;2023-04-03T10:26:50;7.30;64.70
17066;DHT22;23120;52.336;21.182;2023-04-03T10:29:31;7.40;65.50
17066;DHT22;23120;52.336;21.182;2023-04-03T10:32:15;7.40;63.60
17066;DHT22;23120;52.336;21.182;2023-04-03T10:34:47;7.40;61.10
17066;DHT22;23120;52.336;21.182;2023-04-03T10:37:21;7.50;62.30
17066;DHT22;23120;52.336;21.182;2023-04-03T10:39:55;7.50;62.70
17066;DHT22;23120;52.336;21.182;2023-04-03T10:42:28;7.50;60.40
17066;DHT22;23120;52.336;21.182;2023-04-03T10:45:15;7.50;59.80
17066;DHT22;23120;52.336;21.182;2023-04-03T10:47:58;7.50;58.00
17066;DHT22;23120;52.336;21.182;2023-04-03T10:50:39;7.50;60.20
17066;DHT22;23120;52.336;21.182;2023-04-03T10:53:19;7.60;60.50
17066;DHT22;23120;52.336;21.182;2023-04-03T10:55:55;7.70;59.20
17066;DHT22;23120;52.336;21.182;2023-04-03T10:58:31;7.80;60.50
17066;DHT22;23120;52.336;21.182;2023-04-03T11:01:19;7.90;62.40
17066;DHT22;23120;52.336;21.182;2023-04-03T11:03:49;8.00;63.30
17066;DHT22;23120;52.336;21.182;2023-04-03T11:06:20;8.00;62.60
17066;DHT22;23120;52.336;21.182;2023-04-03T11:08:55;8.10;63.90
17066;DHT22;23120;52.336;21.182;2023-04-03T11:11:26;8.10;63.40
17066;DHT22;23120;52.336;21.182;2023-04-03T11:13:57;8.20;63.10
17066;DHT22;23120;52.336;21.182;2023-04-03T11:16:29;8.20;62.00
17066;DHT22;23120;52.336;21.182;2023-04-03T11:19:00;8.20;62.70
17066;DHT22;23120;52.336;21.182;2023-04-03T11:21:32;8.20;64.30
17066;DHT22;23120;52.336;21.182;2023-04-03T11:24:05;8.30;61.70
17066;DHT22;23120;52.336;21.182;2023-04-03T11:26:38;8.40;62.50
17066;DHT22;23120;52.336;21.182;2023-04-03T11:29:14;8.40;59.80
17066;DHT22;23120;52.336;21.182;2023-04-03T11:32:02;8.40;62.70
17066;DHT22;23120;52.336;21.182;2023-04-03T11:34:35;8.50;59.50
17066;DHT22;23120;52.336;21.182;2023-04-03T11:37:11;8.50;59.90
17066;DHT22;23120;52.336;21.182;2023-04-03T11:39:50;8.50;59.50
17066;DHT22;23120;52.336;21.182;2023-04-03T11:42:33;8.60;58.10
17066;DHT22;23120;52.336;21.182;2023-04-03T11:45:16;8.60;56.50
17066;DHT22;23120;52.336;21.182;2023-04-03T11:47:44;8.60;57.20
17066;DHT22;23120;52.336;21.182;2023-04-03T11:50:31;8.60;56.30
17066;DHT22;23120;52.336;21.182;2023-04-03T11:53:09;8.70;58.00
17066;DHT22;23120;52.336;21.182;2023-04-03T11:56:00;8.80;59.50
17066;DHT22;23120;52.336;21.182;2023-04-03T11:58:29;8.90;58.50
17066;DHT22;23120;52.336;21.182;2023-04-03T12:01:06;9.00;58.40
17066;DHT22;23120;52.336;21.182;2023-04-03T12:12:35;9.30;59.70
17066;DHT22;23120;52.336;21.182;2023-04-03T12:15:18;9.20;55.60
17066;DHT22;23120;52.336;21.182;2023-04-03T12:17:46;9.20;56.60
17066;DHT22;23120;52.336;21.182;2023-04-03T12:20:46;9.20;56.40
17066;DHT22;23120;52.336;21.182;2023-04-03T12:23:27;9.20;56.20
17066;DHT22;23120;52.336;21.182;2023-04-03T12:28:43;9.20;55.90
17066;DHT22;23120;52.336;21.182;2023-04-03T12:31:12;9.20;53.80
17066;DHT22;23120;52.336;21.182;2023-04-03T12:34:13;9.20;52.90
17066;DHT22;23120;52.336;21.182;2023-04-03T12:36:47;9.20;54.60
17066;DHT22;23120;52.336;21.182;2023-04-03T12:39:36;9.20;55.00
17066;DHT22;23120;52.336;21.182;2023-04-03T12:42:17;9.30;55.00
17066;DHT22;23120;52.336;21.182;2023-04-03T12:44:56;9.20;55.00
17066;DHT22;23120;52.336;21.182;2023-04-03T12:47:29;9.30;54.50
17066;DHT22;23120;52.336;21.182;2023-04-03T12:49:59;9.30;55.50
17066;DHT22;23120;52.336;21.182;2023-04-03T12:52:38;9.30;55.50
17066;DHT22;23120;52.336;21.182;2023-04-03T12:55:15;9.40;55.70
17066;DHT22;23120;52.336;21.182;2023-04-03T12:57:43;9.30;54.30
17066;DHT22;23120;52.336;21.182;2023-04-03T13:00:29;9.40;51.80
17066;DHT22;23120;52.336;21.182;2023-04-03T13:03:01;9.50;52.60
17066;DHT22;23120;52.336;21.182;2023-04-03T13:05:30;9.50;52.30
17066;DHT22;23120;52.336;21.182;2023-04-03T13:08:00;9.50;55.60
17066;DHT22;23120;52.336;21.182;2023-04-03T13:10:29;9.60;56.20
17066;DHT22;23120;52.336;21.182;2023-04-03T13:12:58;9.70;54.70
17066;DHT22;23120;52.336;21.182;2023-04-03T13:15:53;9.80;54.70
17066;DHT22;23120;52.336;21.182;2023-04-03T13:18:27;9.80;54.30
17066;DHT22;23120;52.336;21.182;2023-04-03T13:21:06;9.80;53.40
17066;DHT22;23120;52.336;21.182;2023-04-03T13:23:36;9.90;52.20
17066;DHT22;23120;52.336;21.182;2023-04-03T13:26:07;9.90;53.40
17066;DHT22;23120;52.336;21.182;2023-04-03T13:28:38;9.80;52.90
17066;DHT22;23120;52.336;21.182;2023-04-03T13:31:18;9.80;53.40
17066;DHT22;23120;52.336;21.182;2023-04-03T13:33:55;9.80;53.40
17066;DHT22;23120;52.336;21.182;2023-04-03T13:36:24;9.70;52.30
17066;DHT22;23120;52.336;21.182;2023-04-03T13:39:02;9.60;51.90
17066;DHT22;23120;52.336;21.182;2023-04-03T13:41:32;9.60;51.80
17066;DHT22;23120;52.336;21.182;2023-04-03T13:44:14;9.60;52.60
17066;DHT22;23120;52.336;21.182;2023-04-03T13:46:43;9.60;52.90
17066;DHT22;23120;52.336;21.182;2023-04-03T13:49:19;9.60;53.20
17066;DHT22;23120;52.336;21.182;2023-04-03T13:51:46;9.60;53.20
17066;DHT22;23120;52.336;21.182;2023-04-03T13:54:20;9.60;53.20
17066;DHT22;23120;52.336;21.182;2023-04-03T13:56:54;9.60;52.80
17066;DHT22;23120;52.336;21.182;2023-04-03T13:59:24;9.60;53.20
17066;DHT22;23120;52.336;21.182;2023-04-03T14:01:55;9.50;53.00
17066;DHT22;23120;52.336;21.182;2023-04-03T14:04:45;9.50;52.50
17066;DHT22;23120;52.336;21.182;2023-04-03T14:07:15;9.50;53.10
17066;DHT22;23120;52.336;21.182;2023-04-03T14:09:43;9.50;52.80
17066;DHT22;23120;52.336;21.182;2023-04-03T14:12:15;9.50;53.20
17066;DHT22;23120;52.336;21.182;2023-04-03T14:14:43;9.40;53.00
17066;DHT22;23120;52.336;21.182;2023-04-03T14:17:14;9.40;53.00
17066;DHT22;23120;52.336;21.182;2023-04-03T14:19:42;9.40;54.50
17066;DHT22;23120;52.336;21.182;2023-04-03T14:22:14;9.30;53.00
17066;DHT22;23120;52.336;21.182;2023-04-03T14:24:41;9.40;53.00
17066;DHT22;23120;52.336;21.182;2023-04-03T14:27:16;9.30;53.00
17066;DHT22;23120;52.336;21.182;2023-04-03T14:29:43;9.30;53.00
17066;DHT22;23120;52.336;21.182;2023-04-03T14:32:13;9.30;52.40
17066;DHT22;23120;52.336;21.182;2023-04-03T14:34:42;9.30;52.90
17066;DHT22;23120;52.336;21.182;2023-04-03T14:37:11;9.30;52.40
17066;DHT22;23120;52.336;21.182;2023-04-03T14:39:38;9.20;53.90
17066;DHT22;23120;52.336;21.182;2023-04-03T14:42:12;9.20;52.90
17066;DHT22;23120;52.336;21.182;2023-04-03T14:44:40;9.10;54.30
17066;DHT22;23120;52.336;21.182;2023-04-03T14:47:11;9.10;54.80
17066;DHT22;23120;52.336;21.182;2023-04-03T14:49:39;9.10;55.20
17066;DHT22;23120;52.336;21.182;2023-04-03T14:52:17;9.00;57.50
17066;DHT22;23120;52.336;21.182;2023-04-03T14:54:45;8.90;55.20
17066;DHT22;23120;52.336;21.182;2023-04-03T14:57:14;8.90;56.10
17066;DHT22;23120;52.336;21.182;2023-04-03T14:59:42;8.80;55.80
17066;DHT22;23120;52.336;21.182;2023-04-03T15:02:28;8.80;56.40
17066;DHT22;23120;52.336;21.182;2023-04-03T15:04:56;8.70;56.30
17066;DHT22;23120;52.336;21.182;2023-04-03T15:07:25;8.60;55.60
17066;DHT22;23120;52.336;21.182;2023-04-03T15:09:53;8.60;56.40
17066;DHT22;23120;52.336;21.182;2023-04-03T15:12:21;8.50;56.10
17066;DHT22;23120;52.336;21.182;2023-04-03T15:14:49;8.40;55.50
17066;DHT22;23120;52.336;21.182;2023-04-03T15:17:18;8.40;56.50
17066;DHT22;23120;52.336;21.182;2023-04-03T15:19:48;8.30;57.60
17066;DHT22;23120;52.336;21.182;2023-04-03T15:22:17;8.30;55.40
17066;DHT22;23120;52.336;21.182;2023-04-03T15:24:45;8.20;55.40
17066;DHT22;23120;52.336;21.182;2023-04-03T15:27:13;8.10;57.30
17066;DHT22;23120;52.336;21.182;2023-04-03T15:29:42;8.10;56.10
17066;DHT22;23120;52.336;21.182;2023-04-03T15:32:10;8.10;56.90
17066;DHT22;23120;52.336;21.182;2023-04-03T15:34:37;8.10;57.40
17066;DHT22;23120;52.336;21.182;2023-04-03T15:37:06;8.00;56.70
17066;DHT22;23120;52.336;21.182;2023-04-03T15:39:33;8.00;56.20
17066;DHT22;23120;52.336;21.182;2023-04-03T15:42:00;7.90;57.60
17066;DHT22;23120;52.336;21.182;2023-04-03T15:44:32;7.90;55.80
17066;DHT22;23120;52.336;21.182;2023-04-03T15:47:01;7.80;56.80
17066;DHT22;23120;52.336;21.182;2023-04-03T15:49:28;7.70;55.50
17066;DHT22;23120;52.336;21.182;2023-04-03T15:51:55;7.60;56.20
17066;DHT22;23120;52.336;21.182;2023-04-03T15:54:23;7.50;55.00
17066;DHT22;23120;52.336;21.182;2023-04-03T15:56:51;7.50;57.40
17066;DHT22;23120;52.336;21.182;2023-04-03T15:59:18;7.40;56.80
17066;DHT22;23120;52.336;21.182;2023-04-03T16:01:46;7.40;57.70
17066;DHT22;23120;52.336;21.182;2023-04-03T16:04:13;7.30;58.10